Time;durP1;ratioP1;P1;durP2;ratioP2;P2;SDS_P1;SDS_P2;PMS_P1;PMS_P2;Temp;Humidity;BMP_temperature;BMP_pressure;BME280_temperature;BME280_humidity;BME280_pressure;Samples;Min_cycle;Max_cycle;Signal;HPM_P1;HPM_P2
2022/02/08 00:02:13;;;;;;;12.15;2.20;;;8.10;99.90;;;;;;5030038;28;20417;-44
2022/02/08 00:04:39;;;;;;;;;;;8.20;99.90;;;;;;5035358;28;20044;-39
2022/02/08 00:07:07;;;;;;;25.58;2.25;;;8.20;99.90;;;;;;5035682;28;19906;-40
2022/02/08 00:09:33;;;;;;;21.55;2.67;;;8.20;99.90;;;;;;5026245;28;20026;-38
2022/02/08 00:12:00;;;;;;;18.00;2.78;;;8.30;99.90;;;;;;5027306;28;20030;-38
2022/02/08 00:14:26;;;;;;;19.58;2.88;;;8.30;99.90;;;;;;5015106;28;20058;-40
2022/02/08 00:16:52;;;;;;;23.75;2.70;;;8.30;99.90;;;;;;5024116;28;20533;-40
2022/02/08 00:19:18;;;;;;;14.75;2.10;;;8.30;99.90;;;;;;5034900;28;20081;-58
2022/02/08 00:21:43;;;;;;;15.65;2.30;;;8.40;99.90;;;;;;5034757;28;20371;-40
2022/02/08 00:24:09;;;;;;;12.00;2.20;;;8.50;99.90;;;;;;5013768;28;20030;-41
2022/02/08 00:26:35;;;;;;;20.80;2.85;;;8.50;99.90;;;;;;5013596;28;20048;-51
2022/02/08 00:29:00;;;;;;;25.70;3.80;;;8.50;99.90;;;;;;5024308;28;20017;-39
2022/02/08 00:31:26;;;;;;;20.77;3.20;;;8.50;99.90;;;;;;5023346;28;20045;-40
2022/02/08 00:33:51;;;;;;;27.70;2.85;;;8.50;99.90;;;;;;5015571;28;20071;-41
2022/02/08 00:36:17;;;;;;;15.48;2.72;;;8.60;99.90;;;;;;5030944;28;20025;-41
2022/02/08 00:38:43;;;;;;;23.77;2.83;;;8.60;99.90;;;;;;5034357;28;20021;-40
2022/02/08 00:41:08;;;;;;;14.02;3.22;;;8.70;99.90;;;;;;5033481;28;20082;-45
2022/02/08 00:43:44;;;;;;;24.00;3.00;;;8.70;99.90;;;;;;5033019;28;20501;-40
2022/02/08 00:46:23;;;;;;;9.68;2.13;;;8.70;99.90;;;;;;5012850;28;20045;-39
2022/02/08 00:48:57;;;;;;;23.08;4.45;;;8.70;99.90;;;;;;5026801;28;20374;-40
2022/02/08 00:51:25;;;;;;;22.10;2.85;;;8.80;99.90;;;;;;5033556;28;20037;-41
2022/02/08 00:53:50;;;;;;;;;;;8.70;99.90;;;;;;5026276;28;20048;-40
2022/02/08 00:56:16;;;;;;;19.25;2.22;;;8.80;99.90;;;;;;5034446;28;19909;-40
2022/02/08 00:58:42;;;;;;;7.65;2.35;;;8.80;99.90;;;;;;5034389;28;20111;-39
2022/02/08 01:01:07;;;;;;;22.20;2.63;;;8.80;99.90;;;;;;5033422;28;20026;-40
2022/02/08 01:03:33;;;;;;;20.48;2.90;;;8.80;99.90;;;;;;5034182;28;20214;-41
2022/02/08 01:06:06;;;;;;;25.27;4.13;;;8.80;99.90;;;;;;5034107;28;20029;-41
2022/02/08 01:08:35;;;;;;;22.67;4.63;;;8.80;99.90;;;;;;5034466;28;20466;-40
2022/02/08 01:11:02;;;;;;;11.15;2.03;;;8.90;99.90;;;;;;5034065;28;20032;-45
2022/02/08 01:13:29;;;;;;;25.93;3.53;;;8.90;99.90;;;;;;5034342;28;20022;-40
2022/02/08 01:15:56;;;;;;;24.27;2.67;;;8.90;99.90;;;;;;5032183;28;20033;-53
2022/02/08 01:18:22;;;;;;;14.65;2.45;;;8.90;99.90;;;;;;5033962;28;20124;-39
2022/02/08 01:20:48;;;;;;;15.80;2.65;;;8.90;99.90;;;;;;5026990;28;20022;-39
2022/02/08 01:23:13;;;;;;;18.77;3.95;;;9.00;99.90;;;;;;5033826;28;20030;-38
2022/02/08 01:25:50;;;;;;;13.60;2.28;;;9.00;99.90;;;;;;5024676;28;20018;-40
2022/02/08 01:28:43;;;;;;;19.43;3.57;;;9.00;99.90;;;;;;5015509;28;20021;-41
2022/02/08 01:31:12;;;;;;;20.83;3.55;;;9.00;99.90;;;;;;5017732;28;20277;-39
2022/02/08 01:36:50;;;;;;;25.02;4.43;;;8.90;99.90;;;;;;5032820;28;20620;-38
2022/02/08 01:39:29;;;;;;;20.33;4.05;;;8.90;99.90;;;;;;5032617;28;20460;-45
2022/02/08 01:42:25;;;;;;;13.40;3.27;;;8.90;99.90;;;;;;5013362;28;20032;-40
2022/02/08 01:45:01;;;;;;;18.88;4.05;;;8.90;99.90;;;;;;5013743;28;20026;-46
2022/02/08 01:50:11;;;;;;;22.67;3.72;;;8.90;99.90;;;;;;5013730;28;20105;-41
2022/02/08 01:52:41;;;;;;;22.02;4.43;;;8.90;99.90;;;;;;5022229;28;20108;-40
2022/02/08 01:55:09;;;;;;;18.67;5.28;;;8.90;99.90;;;;;;5033025;28;20128;-39
2022/02/08 01:57:36;;;;;;;11.43;3.72;;;9.00;99.90;;;;;;5033421;28;20056;-40
2022/02/08 02:00:05;;;;;;;10.90;3.42;;;8.90;99.90;;;;;;5033293;28;20425;-39
2022/02/08 02:02:31;;;;;;;13.88;4.38;;;9.00;99.90;;;;;;5032822;28;20029;-37
2022/02/08 02:04:56;;;;;;;16.95;4.60;;;9.00;99.90;;;;;;5033114;28;20136;-40
2022/02/08 02:07:23;;;;;;;15.07;5.55;;;9.00;99.90;;;;;;5033077;28;20096;-40
2022/02/08 02:09:49;;;;;;;16.35;3.97;;;9.00;99.90;;;;;;5032975;28;20060;-39
2022/02/08 02:12:15;;;;;;;10.48;3.67;;;9.00;99.90;;;;;;5033018;28;20026;-38
2022/02/08 02:14:41;;;;;;;24.02;5.20;;;9.10;99.90;;;;;;5016687;28;20091;-39
2022/02/08 02:17:09;;;;;;;17.92;4.22;;;9.10;99.90;;;;;;5033242;28;20116;-39
2022/02/08 02:19:35;;;;;;;9.25;4.20;;;9.20;99.90;;;;;;5032046;28;20036;-50
2022/02/08 02:22:04;;;;;;;21.23;4.47;;;9.20;99.90;;;;;;5033349;28;20457;-43
2022/02/08 02:24:30;;;;;;;18.27;5.07;;;9.20;99.90;;;;;;5032729;28;20037;-39
2022/02/08 02:26:59;;;;;;;11.20;5.13;;;9.20;99.90;;;;;;5032876;28;20037;-36
2022/02/08 02:29:26;;;;;;;20.42;4.72;;;9.20;99.90;;;;;;5032965;28;20390;-38
2022/02/08 02:31:52;;;;;;;15.70;5.63;;;9.20;99.90;;;;;;5032976;28;20438;-36
2022/02/08 02:34:19;;;;;;;12.95;4.82;;;9.20;99.90;;;;;;5033121;28;20625;-38
2022/02/08 02:36:46;;;;;;;16.48;5.38;;;9.20;99.90;;;;;;5032827;28;20050;-39
2022/02/08 02:39:13;;;;;;;14.65;5.20;;;9.20;99.90;;;;;;5032109;28;20057;-38
2022/02/08 02:41:42;;;;;;;10.38;4.53;;;9.20;99.90;;;;;;5032328;28;20038;-38
2022/02/08 02:44:11;;;;;;;13.07;4.90;;;9.20;99.90;;;;;;5032425;28;20026;-39
2022/02/08 02:46:37;;;;;;;17.52;5.38;;;9.10;99.90;;;;;;5032872;28;20048;-43
2022/02/08 02:49:04;;;;;;;18.05;5.10;;;9.20;99.90;;;;;;5032659;28;20075;-41
2022/02/08 02:51:29;;;;;;;19.00;4.82;;;9.20;99.90;;;;;;5032667;28;20029;-40
2022/02/08 02:53:56;;;;;;;21.05;4.63;;;9.20;99.90;;;;;;5032375;28;20370;-38
2022/02/08 02:56:21;;;;;;;15.00;4.75;;;9.20;99.90;;;;;;5032649;28;20035;-57
2022/02/08 02:58:49;;;;;;;13.70;4.85;;;9.30;99.90;;;;;;5032551;28;20029;-38
2022/02/08 03:04:23;;;;;;;17.80;4.82;;;9.30;99.90;;;;;;5022328;28;20061;-49
2022/02/08 03:20:20;;;;;;;14.65;4.53;;;9.50;99.90;;;;;;5032776;28;20126;-40
2022/02/08 03:22:45;;;;;;;17.30;4.90;;;9.50;99.90;;;;;;5032302;28;20106;-39
2022/02/08 03:25:11;;;;;;;15.68;4.82;;;9.50;99.90;;;;;;5032305;28;20112;-40
2022/02/08 03:27:37;;;;;;;21.05;4.20;;;9.50;99.90;;;;;;5032046;28;20025;-39
2022/02/08 03:30:04;;;;;;;17.55;4.78;;;9.50;99.90;;;;;;5031945;28;20025;-39
2022/02/08 03:32:30;;;;;;;15.13;4.57;;;9.60;99.90;;;;;;5032337;28;20034;-40
2022/02/08 03:34:56;;;;;;;14.70;4.93;;;9.60;99.90;;;;;;5032204;28;20041;-38
2022/02/08 03:37:40;;;;;;;12.80;3.85;;;9.60;99.90;;;;;;5031640;28;20029;-38
2022/02/08 03:40:12;;;;;;;18.83;3.75;;;9.60;99.90;;;;;;5035922;28;20064;-42
2022/02/08 03:42:55;;;;;;;16.80;3.83;;;9.70;99.90;;;;;;5036101;28;20397;-39
2022/02/08 03:45:21;;;;;;;22.88;4.00;;;9.70;99.90;;;;;;5035463;28;20112;-39
2022/02/08 03:47:47;;;;;;;11.73;3.47;;;9.60;99.90;;;;;;5035895;28;20030;-40
2022/02/08 03:50:13;;;;;;;17.40;3.65;;;9.60;99.90;;;;;;5035602;28;20041;-39
2022/02/08 03:52:38;;;;;;;18.10;4.03;;;9.70;99.90;;;;;;5035870;28;20021;-41
2022/02/08 03:55:04;;;;;;;10.75;4.60;;;9.70;99.90;;;;;;5035744;28;20028;-40
2022/02/08 03:57:30;;;;;;;9.85;3.80;;;9.70;99.90;;;;;;5035862;28;20029;-39
2022/02/08 03:59:56;;;;;;;23.45;3.85;;;9.70;99.90;;;;;;5035518;28;20032;-39
2022/02/08 04:07:53;;;;;;;13.90;3.38;;;9.70;99.90;;;;;;5015703;28;20038;-39
2022/02/08 04:10:22;;;;;;;17.13;3.97;;;9.70;99.90;;;;;;5030084;28;20083;-38
2022/02/08 04:34:39;;;;;;;13.00;4.00;;;9.60;99.90;;;;;;5034366;28;20053;-40
2022/02/08 04:37:56;;;;;;;12.05;3.90;;;9.60;99.90;;;;;;5034762;28;20377;-39
2022/02/08 04:42:37;;;;;;;12.20;3.53;;;9.70;99.90;;;;;;5034602;28;20036;-40
2022/02/08 04:47:39;;;;;;;5.40;2.40;;;9.70;99.90;;;;;;5034660;28;20038;-39
2022/02/08 04:50:05;;;;;;;14.75;3.17;;;9.70;99.90;;;;;;5033774;28;20025;-39
2022/02/08 04:52:32;;;;;;;10.15;2.67;;;9.80;99.90;;;;;;5034287;28;20100;-39
2022/02/08 04:55:17;;;;;;;12.68;2.65;;;9.80;99.90;;;;;;5032897;28;20033;-39
2022/02/08 04:57:50;;;;;;;14.50;2.95;;;9.80;99.90;;;;;;5032692;28;20041;-38
2022/02/08 05:00:28;;;;;;;7.70;2.50;;;9.80;99.90;;;;;;5034694;28;20037;-37
2022/02/08 05:35:49;;;;;;;5.03;1.73;;;9.80;99.90;;;;;;5033769;28;20047;-39
2022/02/08 05:43:40;;;;;;;7.43;2.67;;;9.80;99.90;;;;;;5033262;28;20045;-40
2022/02/08 05:48:40;;;;;;;8.10;1.83;;;9.90;99.90;;;;;;5033801;28;20112;-38
2022/02/08 05:51:17;;;;;;;8.30;1.60;;;9.90;99.90;;;;;;5033801;28;20394;-40
2022/02/08 05:53:45;;;;;;;7.53;1.63;;;9.90;99.90;;;;;;5032970;28;20029;-40
2022/02/08 05:56:12;;;;;;;;;;;10.00;99.90;;;;;;5032500;28;20025;-38
2022/02/08 05:58:40;;;;;;;9.57;1.42;;;10.00;99.90;;;;;;5032695;28;19913;-37
2022/02/08 06:01:05;;;;;;;;;;;10.00;99.90;;;;;;5033772;28;20398;-39
2022/02/08 06:03:31;;;;;;;4.95;2.20;;;10.00;99.90;;;;;;5032431;28;19913;-40
2022/02/08 06:05:57;;;;;;;12.60;1.63;;;10.00;99.90;;;;;;5032313;28;20022;-39
2022/02/08 06:08:23;;;;;;;4.32;1.17;;;9.90;99.90;;;;;;5033148;28;20022;-39
2022/02/08 06:10:52;;;;;;;10.68;1.02;;;9.90;99.90;;;;;;5033245;28;20022;-38
2022/02/08 06:13:20;;;;;;;7.15;1.65;;;10.00;99.90;;;;;;5032512;28;20432;-42
2022/02/08 06:15:48;;;;;;;10.10;1.48;;;10.00;99.90;;;;;;5032889;28;20501;-38
2022/02/08 06:18:14;;;;;;;8.77;1.83;;;10.00;99.90;;;;;;5033026;28;20021;-39
2022/02/08 06:20:40;;;;;;;12.68;1.42;;;10.00;99.90;;;;;;5032948;28;20041;-38
2022/02/08 06:23:05;;;;;;;4.22;1.17;;;10.00;99.90;;;;;;5032626;28;20029;-60
2022/02/08 06:25:31;;;;;;;7.15;1.27;;;10.10;99.90;;;;;;5032819;28;20033;-40
2022/02/08 06:27:57;;;;;;;10.48;2.28;;;10.10;99.90;;;;;;5032871;28;20030;-38
2022/02/08 06:30:23;;;;;;;14.50;1.77;;;10.10;99.90;;;;;;5032294;28;20028;-38
2022/02/08 06:32:51;;;;;;;8.07;1.55;;;10.10;99.90;;;;;;5032768;28;20504;-37
2022/02/08 06:35:22;;;;;;;6.75;1.08;;;10.10;99.90;;;;;;5033084;28;20486;-42
2022/02/08 06:37:47;;;;;;;7.22;1.30;;;10.10;99.90;;;;;;5032893;28;20037;-40
2022/02/08 06:40:13;;;;;;;6.30;1.05;;;10.10;99.90;;;;;;5032716;28;20021;-39
2022/02/08 06:42:41;;;;;;;3.38;1.08;;;10.20;99.90;;;;;;5033106;28;20444;-39
2022/02/08 06:45:09;;;;;;;6.85;1.67;;;10.10;99.90;;;;;;5031949;28;20022;-39
2022/02/08 06:47:35;;;;;;;10.75;1.70;;;10.20;99.90;;;;;;5031482;28;20557;-38
2022/02/08 06:50:02;;;;;;;9.70;1.65;;;10.20;99.90;;;;;;5032866;28;20025;-40
2022/02/08 06:52:28;;;;;;;4.70;2.50;;;10.20;99.90;;;;;;5032806;28;20037;-42
2022/02/08 06:54:54;;;;;;;11.65;1.75;;;10.20;99.90;;;;;;5032423;28;20669;-40
2022/02/08 06:57:20;;;;;;;13.82;1.98;;;10.30;99.90;;;;;;5032576;28;20037;-41
2022/02/08 06:59:51;;;;;;;12.20;1.38;;;10.20;99.90;;;;;;5031783;28;20355;-40
2022/02/08 07:02:17;;;;;;;11.77;2.38;;;10.30;99.90;;;;;;5032579;28;20044;-39
2022/02/08 07:04:43;;;;;;;17.27;2.28;;;10.30;99.90;;;;;;5032403;28;20029;-40
2022/02/08 07:07:12;;;;;;;13.55;1.75;;;10.20;99.90;;;;;;5032358;28;20075;-38
2022/02/08 07:09:41;;;;;;;17.20;1.50;;;10.30;99.90;;;;;;5032763;28;20401;-44
2022/02/08 07:12:08;;;;;;;6.10;1.95;;;10.30;99.90;;;;;;5032488;28;20022;-37
2022/02/08 07:14:34;;;;;;;6.82;1.25;;;10.30;99.90;;;;;;5036146;28;20029;-39
2022/02/08 07:17:00;;;;;;;10.15;3.28;;;10.40;99.90;;;;;;5036156;28;20492;-39
2022/02/08 07:19:25;;;;;;;4.75;1.20;;;10.30;99.90;;;;;;5035705;28;20032;-39
2022/02/08 07:21:52;;;;;;;11.18;1.95;;;10.30;99.90;;;;;;5035787;28;20025;-40
2022/02/08 07:24:18;;;;;;;8.00;1.23;;;10.30;99.90;;;;;;5035883;28;20088;-50
2022/02/08 07:26:46;;;;;;;4.60;1.73;;;10.30;99.90;;;;;;5035564;28;20022;-37
2022/02/08 07:29:12;;;;;;;8.55;1.52;;;10.40;99.90;;;;;;5035901;28;20394;-70
2022/02/08 07:31:46;;;;;;;15.90;1.45;;;10.30;99.90;;;;;;5035894;28;20469;-40
2022/02/08 07:34:34;;;;;;;13.43;1.40;;;10.20;99.90;;;;;;5016239;28;20041;-40
2022/02/08 07:42:20;;;;;;;8.20;1.13;;;10.30;99.90;;;;;;5026818;28;20033;-56
2022/02/08 07:44:48;;;;;;;10.77;1.83;;;10.30;99.90;;;;;;5035287;28;20524;-39
2022/02/08 07:47:14;;;;;;;9.85;1.35;;;10.30;99.90;;;;;;5035369;28;20049;-39
2022/02/08 07:49:41;;;;;;;7.25;1.27;;;10.40;99.90;;;;;;5035855;28;20052;-42
2022/02/08 07:52:07;;;;;;;9.70;1.27;;;10.40;99.90;;;;;;5035722;28;20025;-46
2022/02/08 07:54:33;;;;;;;8.25;1.40;;;10.30;99.90;;;;;;5035531;28;20120;-40
2022/02/08 07:56:59;;;;;;;8.52;1.48;;;10.40;99.90;;;;;;5035045;28;20462;-40
2022/02/08 07:59:25;;;;;;;10.75;1.70;;;10.40;99.90;;;;;;5034624;28;20056;-39
2022/02/08 08:01:50;;;;;;;3.17;0.98;;;10.50;99.90;;;;;;5035408;28;20029;-39
2022/02/08 08:04:16;;;;;;;11.55;1.50;;;10.50;99.90;;;;;;5035349;28;20086;-39
2022/02/08 08:06:42;;;;;;;5.78;1.25;;;10.60;99.90;;;;;;5035120;28;20425;-40
2022/02/08 08:09:07;;;;;;;7.95;1.65;;;10.70;99.90;;;;;;5033910;28;20391;-40
2022/02/08 08:11:38;;;;;;;15.75;1.00;;;10.70;99.90;;;;;;5034109;28;20497;-40
2022/02/08 08:14:05;;;;;;;7.55;1.27;;;10.70;99.90;;;;;;5034458;28;20029;-40
2022/02/08 08:21:37;;;;;;;2.20;0.95;;;10.80;99.90;;;;;;5024474;28;20143;-40
2022/02/08 08:24:04;;;;;;;4.45;1.10;;;10.70;99.90;;;;;;5034672;28;20108;-40
2022/02/08 08:26:31;;;;;;;3.78;1.02;;;10.80;99.90;;;;;;5035306;28;20052;-39
2022/02/08 08:28:57;;;;;;;3.53;0.63;;;10.90;99.90;;;;;;5035043;28;20034;-40
2022/02/08 08:31:23;;;;;;;15.55;1.42;;;10.90;99.90;;;;;;5034911;28;20394;-40
2022/02/08 08:33:49;;;;;;;15.20;1.27;;;10.90;99.90;;;;;;5034993;28;20030;-52
2022/02/08 08:36:18;;;;;;;5.85;0.95;;;10.90;99.90;;;;;;5018965;28;20026;-40
2022/02/08 08:38:47;;;;;;;11.10;1.30;;;11.00;99.90;;;;;;5015253;28;20037;-40
2022/02/08 08:51:40;;;;;;;8.57;0.93;;;11.00;99.90;;;;;;5033436;28;20433;-39
2022/02/08 08:54:07;;;;;;;1.17;0.77;;;11.10;99.90;;;;;;5014821;28;20106;-40
2022/02/08 08:56:35;;;;;;;2.58;0.77;;;11.10;99.90;;;;;;5014737;28;20061;-41
2022/02/08 08:59:00;;;;;;;1.87;1.17;;;11.10;99.90;;;;;;5022754;28;20022;-41
2022/02/08 09:01:26;;;;;;;9.18;1.30;;;11.10;99.90;;;;;;5031812;28;20029;-41
2022/02/08 09:03:52;;;;;;;0.98;0.57;;;11.20;99.90;;;;;;5032860;28;20524;-41
2022/02/08 09:06:18;;;;;;;3.42;0.70;;;11.30;99.90;;;;;;5034055;28;20101;-41
2022/02/08 09:08:44;;;;;;;6.07;1.40;;;11.30;99.90;;;;;;5034072;28;20056;-41
2022/02/08 09:11:17;;;;;;;5.45;0.88;;;11.30;99.90;;;;;;5025393;28;20041;-41
2022/02/08 09:13:58;;;;;;;10.23;1.13;;;11.40;99.90;;;;;;5019075;28;20083;-40
2022/02/08 09:22:04;;;;;;;4.35;1.00;;;11.50;99.90;;;;;;5014325;28;20052;-40
2022/02/08 09:24:53;;;;;;;3.28;0.77;;;11.60;99.90;;;;;;5021704;28;20133;-36
2022/02/08 09:30:08;;;;;;;13.93;1.67;;;11.70;99.90;;;;;;5031902;28;20068;-39
2022/02/08 09:35:09;;;;;;;6.43;0.77;;;11.70;99.90;;;;;;5022749;28;20121;-39
2022/02/08 09:37:35;;;;;;;2.40;0.88;;;11.70;99.90;;;;;;5033564;28;20064;-40
2022/02/08 09:40:03;;;;;;;5.88;0.75;;;11.80;99.90;;;;;;5032705;28;20406;-40
2022/02/08 09:42:28;;;;;;;8.68;1.60;;;11.80;99.90;;;;;;5033417;28;20052;-39
2022/02/08 09:44:55;;;;;;;5.45;0.95;;;11.80;99.90;;;;;;5031615;28;20033;-39
2022/02/08 09:47:31;;;;;;;5.07;0.95;;;11.80;99.90;;;;;;5021163;28;20048;-40
2022/02/08 09:50:06;;;;;;;2.55;0.88;;;11.90;99.90;;;;;;5032243;28;20044;-39
2022/02/08 09:52:31;;;;;;;7.22;1.00;;;11.90;99.90;;;;;;5033210;28;20026;-40
2022/02/08 09:54:57;;;;;;;10.07;1.40;;;11.90;99.90;;;;;;5029732;28;20034;-39
2022/02/08 09:57:22;;;;;;;7.60;0.82;;;11.90;99.90;;;;;;5015506;28;20486;-38
2022/02/08 09:59:49;;;;;;;7.90;1.15;;;12.00;99.90;;;;;;5013506;28;20164;-41
2022/02/08 10:02:20;;;;;;;11.75;1.00;;;12.00;99.90;;;;;;5027538;28;20063;-40
2022/02/08 10:04:46;;;;;;;7.05;1.10;;;12.00;99.90;;;;;;5033006;28;20041;-41
2022/02/08 10:07:13;;;;;;;8.45;1.85;;;12.10;99.90;;;;;;5033297;28;20033;-42
2022/02/08 10:09:40;;;;;;;11.48;1.23;;;12.10;99.90;;;;;;5032994;28;20026;-40
2022/02/08 10:12:07;;;;;;;4.45;1.05;;;12.20;99.90;;;;;;5021586;28;20494;-40
2022/02/08 10:22:47;;;;;;;7.25;1.30;;;12.30;99.90;;;;;;5030700;28;20036;-41
2022/02/08 10:25:30;;;;;;;8.57;1.10;;;12.40;99.90;;;;;;5027697;28;20117;-40
2022/02/08 10:28:07;;;;;;;7.68;1.75;;;12.30;99.90;;;;;;5032798;28;20024;-42
2022/02/08 10:38:47;;;;;;;3.22;0.82;;;12.40;99.90;;;;;;5025502;28;20045;-40
2022/02/08 10:41:19;;;;;;;8.75;1.08;;;12.40;99.90;;;;;;5032991;28;20064;-41
2022/02/08 10:44:03;;;;;;;7.65;0.80;;;12.50;99.90;;;;;;5031815;28;20505;-39
2022/02/08 10:46:29;;;;;;;7.00;1.35;;;12.50;99.90;;;;;;5013149;28;20429;-38
2022/02/08 10:49:07;;;;;;;8.85;0.77;;;12.60;99.90;;;;;;5020494;28;20026;-39
2022/02/08 10:51:40;;;;;;;6.05;0.95;;;12.70;99.90;;;;;;5031989;28;20492;-40
2022/02/08 10:54:13;;;;;;;4.78;0.70;;;12.60;99.90;;;;;;5023182;28;20044;-37
2022/02/08 10:56:44;;;;;;;6.90;1.30;;;12.60;99.90;;;;;;5030606;28;20367;-40
2022/02/08 10:59:18;;;;;;;3.63;0.90;;;12.70;99.90;;;;;;5026337;28;20052;-39
2022/02/08 11:02:00;;;;;;;10.52;1.50;;;12.80;99.90;;;;;;5024764;28;20028;-38
2022/02/08 11:05:25;;;;;;;6.25;0.90;;;12.80;99.90;;;;;;5025597;28;20033;-38
2022/02/08 11:10:42;;;;;;;10.68;0.95;;;13.00;99.90;;;;;;5025342;28;20032;-40
2022/02/08 11:16:13;;;;;;;3.72;0.60;;;13.00;99.90;;;;;;5029187;28;20049;-39
2022/02/08 11:18:46;;;;;;;12.73;1.35;;;13.00;99.90;;;;;;5028972;28;20128;-36
2022/02/08 11:21:31;;;;;;;3.15;0.77;;;12.90;99.90;;;;;;5023158;28;20041;-38
2022/02/08 11:24:04;;;;;;;6.03;0.95;;;12.90;99.90;;;;;;5026782;28;20030;-50
2022/02/08 11:26:40;;;;;;;3.30;0.50;;;12.80;99.90;;;;;;5026688;28;20029;-53
2022/02/08 11:29:28;;;;;;;4.47;1.02;;;12.80;99.90;;;;;;5025721;28;20030;-56
2022/02/08 11:32:08;;;;;;;6.43;1.13;;;12.60;99.90;;;;;;5024167;28;20520;-39
2022/02/08 11:43:18;;;;;;;3.10;0.73;;;12.50;99.90;;;;;;5019066;28;20417;-39
2022/02/08 11:48:59;;;;;;;3.95;0.77;;;12.90;99.90;;;;;;5030943;28;20125;-42
2022/02/08 11:51:53;;;;;;;1.27;0.40;;;13.00;99.90;;;;;;5015731;28;20033;-39
2022/02/08 11:54:37;;;;;;;5.72;1.25;;;12.90;99.90;;;;;;5022441;28;20592;-39
2022/02/08 12:04:55;;;;;;;6.35;0.73;;;13.20;99.90;;;;;;5035653;28;20033;-40
2022/02/08 12:07:20;;;;;;;7.05;1.10;;;13.10;99.90;;;;;;5022531;28;20108;-39
2022/02/08 13:05:55;;;;;;;2.22;0.60;;;12.60;99.90;;;;;;5025142;28;20731;-43
2022/02/08 14:02:56;;;;;;;9.30;1.08;;;12.50;99.90;;;;;;5022491;28;20036;-39
2022/02/08 14:18:42;;;;;;;4.15;0.90;;;12.90;99.90;;;;;;5023280;28;20071;-45
2022/02/08 14:24:15;;;;;;;3.05;1.00;;;13.00;99.90;;;;;;5021614;28;20045;-38
2022/02/08 14:34:56;;;;;;;9.20;1.58;;;12.70;99.90;;;;;;5019991;28;20505;-37
2022/02/08 15:09:43;;;;;;;7.70;1.00;;;12.50;99.90;;;;;;5027826;28;20041;-47
2022/02/08 15:12:18;;;;;;;6.35;0.80;;;12.60;99.90;;;;;;5025971;28;20482;-46
2022/02/08 15:15:00;;;;;;;5.25;1.45;;;12.70;99.90;;;;;;5029366;28;20026;-45
2022/02/08 15:17:26;;;;;;;2.88;1.55;;;12.80;99.90;;;;;;5023214;28;20045;-40
2022/02/08 15:19:54;;;;;;;5.95;0.68;;;12.80;99.90;;;;;;5029547;28;20060;-63
2022/02/08 15:22:20;;;;;;;9.40;1.27;;;12.80;99.90;;;;;;5018700;28;20041;-40
2022/02/08 15:24:47;;;;;;;5.10;0.90;;;12.70;99.90;;;;;;5019818;28;20029;-40
2022/02/08 15:27:14;;;;;;;4.47;1.10;;;12.60;99.90;;;;;;5027688;28;20028;-41
2022/02/08 15:29:40;;;;;;;2.75;0.70;;;12.40;99.90;;;;;;5026632;28;20033;-39
2022/02/08 15:32:12;;;;;;;1.75;1.08;;;12.40;99.90;;;;;;5023426;28;20018;-39
2022/02/08 15:34:38;;;;;;;5.30;0.60;;;12.50;99.90;;;;;;5032955;28;20079;-39
2022/02/08 15:37:04;;;;;;;5.95;1.55;;;12.50;99.90;;;;;;5031116;28;20033;-39
2022/02/08 15:39:29;;;;;;;5.07;0.93;;;12.40;99.90;;;;;;5031257;28;20025;-40
2022/02/08 15:41:55;;;;;;;3.10;0.65;;;12.50;99.90;;;;;;5022579;28;20124;-41
2022/02/08 15:44:24;;;;;;;5.00;1.45;;;12.60;99.90;;;;;;5029457;28;20394;-40
2022/02/08 15:46:51;;;;;;;5.28;1.00;;;12.60;99.90;;;;;;5034100;28;20018;-36
2022/02/08 15:49:17;;;;;;;3.10;1.13;;;12.60;99.90;;;;;;5035186;28;20018;-41
2022/02/08 15:51:46;;;;;;;4.75;1.10;;;12.50;99.90;;;;;;5035887;28;20071;-40
2022/02/08 15:54:22;;;;;;;3.80;0.65;;;12.40;99.90;;;;;;5034906;28;20070;-40
2022/02/08 16:10:07;;;;;;;5.22;2.17;;;12.30;99.90;;;;;;5032094;28;20073;-39
2022/02/08 16:12:53;;;;;;;6.05;0.70;;;12.20;99.90;;;;;;5015388;28;20032;-41
2022/02/08 16:15:35;;;;;;;9.60;1.40;;;12.20;99.90;;;;;;5031281;28;20030;-39
2022/02/08 16:18:12;;;;;;;2.05;0.63;;;12.10;99.90;;;;;;5030622;28;20038;-39
2022/02/08 16:24:00;;;;;;;7.72;1.13;;;12.00;99.90;;;;;;5033811;28;20636;-39
2022/02/08 16:29:04;;;;;;;5.90;0.70;;;11.80;99.90;;;;;;5030967;28;20131;-40
2022/02/08 16:31:49;;;;;;;4.47;0.93;;;11.70;99.90;;;;;;5030989;28;20068;-39
2022/02/08 16:53:25;;;;;;;6.70;1.05;;;11.10;99.90;;;;;;5028815;28;20043;-39
2022/02/08 16:56:53;;;;;;;4.05;0.60;;;11.20;99.90;;;;;;5028127;28;20028;-41
2022/02/08 16:58:55;;;;;;;2.13;0.90;;;11.20;99.90;;;;;;5022441;28;20112;-39
2022/02/08 17:01:26;;;;;;;4.57;1.05;;;11.20;99.90;;;;;;5019349;28;20538;-39
2022/02/08 17:03:51;;;;;;;5.78;0.85;;;11.20;99.90;;;;;;5033182;28;20438;-38
2022/02/08 17:06:20;;;;;;;8.32;1.40;;;11.20;99.90;;;;;;5031546;28;20025;-38
2022/02/08 17:08:50;;;;;;;7.22;1.15;;;11.20;99.90;;;;;;5020739;28;20448;-44
2022/02/08 17:11:23;;;;;;;2.42;0.80;;;11.20;99.90;;;;;;5020368;28;20068;-40
2022/02/08 17:14:12;;;;;;;8.52;1.02;;;11.20;99.90;;;;;;5014236;28;20022;-40
2022/02/08 17:16:49;;;;;;;3.97;0.95;;;11.20;99.90;;;;;;5013892;28;20052;-40
2022/02/08 17:46:18;;;;;;;5.65;0.93;;;11.00;99.90;;;;;;5033783;28;20508;-40
2022/02/08 17:48:45;;;;;;;7.00;0.95;;;11.00;99.90;;;;;;5033725;28;20030;-41
2022/02/08 17:51:11;;;;;;;8.82;0.88;;;11.00;99.90;;;;;;5033598;28;20026;-38
2022/02/08 17:53:40;;;;;;;2.42;0.63;;;10.90;99.90;;;;;;5033644;28;20022;-39
2022/02/08 17:56:06;;;;;;;2.03;0.85;;;10.90;99.90;;;;;;5033116;28;20021;-40
2022/02/08 17:58:33;;;;;;;4.07;0.80;;;10.90;99.90;;;;;;5033314;28;20029;-45
2022/02/08 18:01:00;;;;;;;7.40;1.37;;;10.80;99.90;;;;;;5033351;28;20425;-40
2022/02/08 18:03:25;;;;;;;3.40;0.93;;;10.80;99.90;;;;;;5033413;28;20040;-39
2022/02/08 18:05:51;;;;;;;9.80;1.90;;;10.80;99.90;;;;;;5033228;28;20026;-55
2022/02/08 18:08:19;;;;;;;6.50;1.30;;;10.80;99.90;;;;;;5033616;28;20029;-39
2022/02/08 18:10:48;;;;;;;1.77;1.02;;;10.70;99.90;;;;;;5033391;28;20026;-40
2022/02/08 18:13:18;;;;;;;7.57;1.23;;;10.70;99.90;;;;;;5033504;28;20479;-40
2022/02/08 18:15:44;;;;;;;3.38;1.05;;;10.70;99.90;;;;;;5033295;28;20025;-39
2022/02/08 18:18:21;;;;;;;3.80;0.73;;;10.60;99.90;;;;;;5032955;28;20561;-39
2022/02/08 18:21:15;;;;;;;1.60;0.60;;;10.70;99.90;;;;;;5033125;28;20025;-38
2022/02/08 18:24:02;;;;;;;3.35;0.95;;;10.70;99.90;;;;;;5032657;28;20044;-39
2022/02/08 19:07:30;;;;;;;10.27;1.50;;;10.10;99.90;;;;;;5032666;28;20041;-42
2022/02/08 19:12:36;;;;;;;10.68;1.92;;;10.20;99.90;;;;;;5036746;28;20091;-40
2022/02/08 19:15:20;;;;;;;4.55;1.45;;;10.30;99.90;;;;;;5036688;28;20354;-40
2022/02/08 19:20:38;;;;;;;3.20;1.25;;;10.30;99.90;;;;;;5025245;28;20036;-57
2022/02/08 19:23:04;;;;;;;4.35;1.15;;;10.30;99.90;;;;;;5036635;28;20026;-48
2022/02/08 19:25:29;;;;;;;4.18;1.42;;;10.20;99.90;;;;;;5036132;28;20031;-44
2022/02/08 19:27:57;;;;;;;4.90;1.10;;;10.20;99.90;;;;;;5036133;28;20025;-41
2022/02/08 19:30:22;;;;;;;8.63;1.33;;;10.20;99.90;;;;;;5035945;28;20028;-48
2022/02/08 19:32:48;;;;;;;6.00;1.10;;;10.20;99.90;;;;;;5035994;28;20029;-39
2022/02/08 19:35:14;;;;;;;4.38;0.95;;;10.20;99.90;;;;;;5035958;28;20490;-41
2022/02/08 19:37:41;;;;;;;8.27;1.35;;;10.20;99.90;;;;;;5035990;28;20041;-38
2022/02/08 19:40:08;;;;;;;7.25;1.20;;;10.20;99.90;;;;;;5036143;28;20120;-40
2022/02/08 19:42:35;;;;;;;1.35;1.20;;;10.20;99.90;;;;;;5035915;28;20226;-39
2022/02/08 19:45:11;;;;;;;11.95;1.35;;;10.20;99.90;;;;;;5036054;28;20025;-40
2022/02/08 19:47:37;;;;;;;4.35;1.80;;;10.10;99.90;;;;;;5036129;28;20029;-39
2022/02/08 19:50:03;;;;;;;2.92;1.10;;;10.20;99.90;;;;;;5035914;28;20028;-39
2022/02/08 19:52:31;;;;;;;4.65;1.05;;;10.10;99.90;;;;;;5035818;28;20479;-39
2022/02/08 19:57:41;;;;;;;3.95;1.15;;;10.20;99.90;;;;;;5035931;28;19916;-39
2022/02/08 20:00:10;;;;;;;12.18;1.13;;;10.20;99.90;;;;;;5035606;28;20026;-38
2022/02/08 20:02:45;;;;;;;5.43;1.70;;;10.20;99.90;;;;;;5034000;28;20044;-40
2022/02/08 20:05:14;;;;;;;8.07;0.95;;;10.30;99.90;;;;;;5035847;28;20037;-41
2022/02/08 20:07:39;;;;;;;6.35;1.10;;;10.30;99.90;;;;;;5035714;28;20026;-38
2022/02/08 20:10:06;;;;;;;5.72;1.70;;;10.30;99.90;;;;;;5035363;28;20471;-39
2022/02/08 20:12:31;;;;;;;5.95;1.20;;;10.30;99.90;;;;;;5035357;28;20040;-40
2022/02/08 20:14:57;;;;;;;3.65;1.00;;;10.30;99.90;;;;;;5035747;28;20026;-66
2022/02/08 20:17:23;;;;;;;4.35;2.20;;;10.40;99.90;;;;;;5034955;28;20041;-40
2022/02/08 20:19:50;;;;;;;7.35;0.80;;;10.40;99.90;;;;;;5034978;28;20440;-40
2022/02/08 20:22:15;;;;;;;4.53;1.13;;;10.40;99.90;;;;;;5035145;28;20033;-38
2022/02/08 20:24:41;;;;;;;4.40;0.95;;;10.40;99.90;;;;;;5035232;28;20361;-40
2022/02/08 20:29:55;;;;;;;4.13;0.60;;;10.50;99.90;;;;;;5035067;28;20449;-39
2022/02/08 20:32:21;;;;;;;8.70;0.80;;;10.40;99.90;;;;;;5035084;28;20030;-41
2022/02/08 20:34:46;;;;;;;5.15;1.40;;;10.40;99.90;;;;;;5034997;28;20501;-38